Aurora, MN

5:21 PM CST on February 26, 2015 (GMT -0600)
APRSWXNET Aurora MN US | Change Station
CLOSE
Current Station
Personal Weather Station
Location: Aurora, MN
Elevation: 1437 ft
Nearby Weather Stations
Active Advisory: Special Statement Active Notice: Record Report

Elev 1437 ft 47.52 °N, 92.24 °W | Updated 58 minutes ago

Clear
Clear
6 °F
Feels Like 6 °F
N
2
Wind Variable Wind from NNE
Gusts 7.0 mph

Today
High -- | Low -- °F
--% Chance of Precip.
Yesterday
High -- | Low -- °F
Precip. -- in
6:55 AM 5:49 PM
Waxing Gibbous, 63% visible
Pressure 30.34 in
Visibility 10.0 miles
Clouds Clear
Windchill 6 °F
Dew Point -9 °F
Humidity 49%
Rainfall 0.00 in
Snow Depth Not available.
UV 0 out of 12
Pollen .10 out of 12
Air Quality Not available.
Flu Activity Not available.
METAR KEVM 262311Z AUTO 29008KT 10SM CLR M14/M24 A3034 RMK AO2

More Conditions Fewer Conditions

Pressure 30.34 in
Visibility 10.0 miles
Clouds Clear
Windchill 6 °F
Dew Point -9 °F
Humidity 49%
Rainfall 0.00 in
Snow Depth Not available.
UV 0 out of 12
Pollen .10 out of 12
Air Quality Not available.
Flu Activity Not available.
METAR KEVM 262311Z AUTO 29008KT 10SM CLR M14/M24 A3034 RMK AO2

More Conditions Fewer Conditions

10-Day Weather Forecast

Almanac

Astronomy

Feb. 26, 2015 Rise Set
Actual Time
Civil Twilight
Nautical Twilight
Astronomical Twilight
Moon
Length of Visible Light
Length of Day
Tomorrow will be .
, % of the Moon is Illuminated

Today's Extremes

State Highs State Lows

Community

WunderPhotos

Upload Photos

1,800,526 photos uploaded!

WunderBlogs® & News

Nearby

Air Quality

  Air Quality AQ Index Pollutant
Not available.

Snow Depth

Station Depth Elevation

Earthquake Activity

City Distance Mag. Time & Date
Minimum magnitude displayed is 2.5.

Coastal Water Temperatures

Place Temperature

Nearby Weather Stations

Special Statement
Statement as of 3:15 PM CST on February 26, 2015

... Cold wind chills expected tonight...

Temperatures will fall to the teens below to 20 below overnight.
Winds will be on the light side... however any occasional breeze
may drop the wind chill briefly to 25 to 30 below across the
Northland... especially just before sunrise Friday morning. If
venturing outdoors... take normal precautions against hypothermia
by wearing proper winter clothing.



315 PM CST Thu Feb 26 2015

... Cold wind chills expected tonight...

Temperatures will fall to the teens below to 20 below overnight.
Winds will be on the light side... however any occasional breeze
may drop the wind chill briefly to 25 to 30 below across the
Northland... especially just before sunrise Friday morning. If
venturing outdoors... take normal precautions against hypothermia
by wearing proper winter clothing.